createdAt,value
2018-02-15T00:01:48.562Z,21.02
2018-02-15T00:04:16.628Z,17.40
2018-02-15T00:06:44.703Z,18.80
2018-02-15T00:09:13.598Z,16.97
2018-02-15T00:11:42.269Z,17.33
2018-02-15T00:14:10.334Z,19.00
2018-02-15T00:16:38.409Z,17.23
2018-02-15T00:19:06.523Z,15.83
2018-02-15T00:21:34.605Z,15.37
2018-02-15T00:24:02.781Z,14.18
2018-02-15T00:26:30.841Z,15.13
2018-02-15T00:28:58.953Z,16.15
2018-02-15T00:31:26.980Z,16.37
2018-02-15T00:33:55.065Z,13.90
2018-02-15T00:36:23.161Z,15.40
2018-02-15T00:38:52.467Z,15.77
2018-02-15T00:41:20.545Z,13.80
2018-02-15T00:43:48.617Z,15.87
2018-02-15T00:46:16.793Z,16.20
2018-02-15T00:48:44.873Z,17.70
2018-02-15T00:51:12.929Z,13.90
2018-02-15T00:53:41.018Z,12.70
2018-02-15T00:56:09.081Z,13.43
2018-02-15T00:58:37.160Z,13.03
2018-02-15T01:01:05.226Z,14.70
2018-02-15T01:03:33.293Z,12.63
2018-02-15T01:06:01.363Z,12.50
2018-02-15T01:08:29.480Z,15.80
2018-02-15T01:10:57.541Z,11.85
2018-02-15T01:13:25.610Z,11.87
2018-02-15T01:15:54.014Z,13.20
2018-02-15T01:18:22.085Z,11.53
2018-02-15T01:20:50.181Z,10.30
2018-02-15T01:23:18.257Z,13.77
2018-02-15T01:25:46.838Z,13.07
2018-02-15T01:28:15.010Z,12.10
2018-02-15T01:30:43.077Z,11.10
2018-02-15T01:33:11.133Z,12.70
2018-02-15T01:35:39.211Z,11.00
2018-02-15T01:38:07.276Z,10.50
2018-02-15T01:40:35.343Z,13.33
2018-02-15T01:43:04.180Z,11.73
2018-02-15T01:45:32.253Z,13.00
2018-02-15T01:48:00.681Z,11.83
2018-02-15T01:50:29.536Z,10.77
2018-02-15T01:52:57.845Z,10.68
2018-02-15T01:55:26.821Z,10.27
2018-02-15T01:57:54.881Z,11.93
2018-02-15T02:00:22.955Z,13.10
2018-02-15T02:02:52.141Z,11.07
2018-02-15T02:05:20.239Z,10.60
2018-02-15T02:07:48.305Z,8.90
2018-02-15T02:10:16.386Z,10.13
2018-02-15T02:12:44.457Z,11.07
2018-02-15T02:15:12.538Z,11.50
2018-02-15T02:17:40.617Z,9.63
2018-02-15T02:20:08.705Z,9.80
2018-02-15T02:22:36.770Z,9.87
2018-02-15T02:25:04.857Z,11.07
2018-02-15T02:27:32.932Z,10.45
2018-02-15T02:30:01.004Z,11.73
2018-02-15T02:32:29.085Z,11.20
2018-02-15T02:34:58.390Z,10.73
2018-02-15T02:37:26.465Z,11.50
2018-02-15T02:39:54.645Z,12.03
2018-02-15T02:42:22.711Z,11.20
2018-02-15T02:44:50.781Z,9.37
2018-02-15T02:47:18.892Z,10.03
2018-02-15T02:49:46.982Z,10.93
2018-02-15T02:52:15.056Z,8.97
2018-02-15T02:54:43.206Z,10.70
2018-02-15T02:57:11.265Z,9.03
2018-02-15T02:59:39.357Z,9.57
2018-02-15T03:02:07.420Z,8.77
2018-02-15T03:04:35.489Z,9.95
2018-02-15T03:07:03.590Z,8.30
2018-02-15T03:09:31.770Z,9.83
2018-02-15T03:11:59.835Z,10.40
2018-02-15T03:14:29.425Z,9.50
2018-02-15T03:16:58.608Z,9.37
2018-02-15T03:19:26.694Z,10.13
2018-02-15T03:21:54.809Z,10.20
2018-02-15T03:24:22.896Z,9.37
2018-02-15T03:26:52.199Z,7.80
2018-02-15T03:29:20.266Z,7.73
2018-02-15T03:31:48.341Z,8.57
2018-02-15T03:34:16.530Z,8.88
2018-02-15T03:36:44.589Z,7.80
2018-02-15T03:39:12.669Z,7.28
2018-02-15T03:41:40.749Z,6.60
2018-02-15T03:44:08.825Z,7.23
2018-02-15T03:46:36.879Z,7.67
2018-02-15T03:49:04.950Z,6.90
2018-02-15T03:51:33.062Z,7.03
2018-02-15T03:54:01.130Z,5.72
2018-02-15T03:56:29.235Z,6.25
2018-02-15T03:58:57.297Z,7.25
2018-02-15T04:01:25.465Z,7.33
2018-02-15T04:03:53.521Z,7.23
2018-02-15T04:06:21.594Z,7.60
2018-02-15T04:08:49.665Z,6.10
2018-02-15T04:11:17.746Z,6.23
2018-02-15T04:13:46.017Z,6.03
2018-02-15T04:16:14.090Z,5.93
2018-02-15T04:18:42.202Z,5.93
2018-02-15T04:21:10.370Z,5.47
2018-02-15T04:23:38.427Z,5.30
2018-02-15T04:26:06.764Z,4.93
2018-02-15T04:28:34.923Z,5.40
2018-02-15T04:31:03.033Z,4.70
2018-02-15T04:33:31.179Z,5.07
2018-02-15T04:35:59.777Z,5.03
2018-02-15T04:38:27.842Z,5.23
2018-02-15T04:40:55.905Z,5.23
2018-02-15T04:43:23.982Z,6.90
2018-02-15T04:45:52.284Z,4.30
2018-02-15T04:48:20.338Z,5.37
2018-02-15T04:50:48.422Z,4.37
2018-02-15T04:53:16.481Z,5.50
2018-02-15T04:55:44.577Z,5.23
2018-02-15T04:58:12.655Z,5.20
2018-02-15T05:00:40.709Z,6.10
2018-02-15T05:03:08.793Z,5.47
2018-02-15T05:05:37.049Z,5.27
2018-02-15T05:08:05.105Z,5.17
2018-02-15T05:10:33.946Z,4.80
2018-02-15T05:13:02.013Z,6.60
2018-02-15T05:15:30.110Z,3.55
2018-02-15T05:17:58.290Z,3.97
2018-02-15T05:20:26.354Z,5.90
2018-02-15T05:22:54.431Z,5.33
2018-02-15T05:25:22.481Z,5.33
2018-02-15T05:27:50.596Z,4.50
2018-02-15T05:30:18.657Z,5.20
2018-02-15T05:32:46.720Z,4.77
2018-02-15T05:35:14.825Z,4.57
2018-02-15T05:37:43.000Z,3.93
2018-02-15T05:40:11.173Z,3.43
2018-02-15T05:42:39.233Z,3.63
2018-02-15T05:45:07.293Z,3.97
2018-02-15T05:47:35.363Z,4.47
2018-02-15T05:50:03.474Z,4.35
2018-02-15T05:52:31.532Z,3.67
2018-02-15T05:55:00.729Z,4.05
2018-02-15T05:57:28.831Z,4.00
2018-02-15T05:59:56.913Z,3.83
2018-02-15T06:02:24.961Z,3.80
2018-02-15T06:04:53.070Z,3.63
2018-02-15T06:07:21.130Z,3.20
2018-02-15T06:09:49.205Z,3.40
2018-02-15T06:12:17.285Z,4.45
2018-02-15T06:14:45.354Z,2.90
2018-02-15T06:17:13.451Z,3.47
2018-02-15T06:19:41.627Z,4.47
2018-02-15T06:22:09.686Z,4.10
2018-02-15T06:24:37.748Z,4.00
2018-02-15T06:27:05.816Z,3.30
2018-02-15T06:29:33.889Z,3.73
2018-02-15T06:32:01.950Z,3.83
2018-02-15T06:34:31.929Z,3.20
2018-02-15T06:37:01.112Z,3.80
2018-02-15T06:39:29.176Z,3.47
2018-02-15T06:41:57.234Z,2.95
2018-02-15T06:44:25.302Z,3.60
2018-02-15T06:46:54.250Z,3.97
2018-02-15T06:49:22.433Z,3.28
2018-02-15T06:51:50.493Z,4.50
2018-02-15T06:54:18.561Z,3.70
2018-02-15T06:56:46.654Z,4.23
2018-02-15T06:59:14.744Z,3.20
2018-02-15T07:01:42.919Z,3.83
2018-02-15T07:04:10.973Z,3.30
2018-02-15T07:06:39.047Z,3.43
2018-02-15T07:09:07.114Z,3.43
2018-02-15T07:11:35.266Z,3.30
2018-02-15T07:14:04.113Z,4.05
2018-02-15T07:16:32.190Z,3.40
2018-02-15T07:19:00.272Z,3.20
2018-02-15T07:21:28.436Z,3.53
2018-02-15T07:23:56.497Z,3.27
2018-02-15T07:26:24.659Z,3.90
2018-02-15T07:28:53.490Z,3.05
2018-02-15T07:31:21.562Z,3.07
2018-02-15T07:33:49.641Z,3.20
2018-02-15T07:36:17.717Z,3.75
2018-02-15T07:38:45.803Z,3.40
2018-02-15T07:41:13.878Z,4.12
2018-02-15T07:43:41.945Z,4.97
2018-02-15T07:46:10.010Z,4.28
2018-02-15T07:48:38.065Z,3.60
2018-02-15T07:51:06.150Z,3.20
2018-02-15T07:53:34.220Z,3.43
2018-02-15T07:56:02.273Z,4.53
2018-02-15T07:58:32.237Z,2.90
2018-02-15T08:01:00.296Z,3.22
2018-02-15T08:03:28.376Z,3.63
2018-02-15T08:05:56.432Z,3.35
2018-02-15T08:08:24.556Z,3.00
2018-02-15T08:10:52.617Z,2.97
2018-02-15T08:13:20.794Z,3.03
2018-02-15T08:15:48.854Z,3.17
2018-02-15T08:18:16.965Z,4.40
2018-02-15T08:20:45.341Z,3.30
2018-02-15T08:23:13.485Z,5.07
2018-02-15T08:25:42.313Z,4.35
2018-02-15T08:28:10.385Z,3.80
2018-02-15T08:30:39.318Z,3.70
2018-02-15T08:33:07.499Z,4.18
2018-02-15T08:35:35.644Z,3.63
2018-02-15T08:38:03.711Z,3.95
2018-02-15T08:40:33.789Z,3.40
2018-02-15T08:43:02.946Z,2.40
2018-02-15T08:45:31.034Z,3.23
2018-02-15T08:47:59.196Z,3.75
2018-02-15T08:50:27.381Z,3.20
2018-02-15T08:52:55.599Z,3.50
2018-02-15T08:55:24.476Z,3.77
2018-02-15T08:57:52.962Z,2.87
2018-02-15T09:00:21.046Z,3.50
2018-02-15T09:02:50.031Z,3.30
2018-02-15T09:05:18.872Z,3.70
2018-02-15T09:07:46.957Z,3.60
2018-02-15T09:10:15.229Z,4.03
2018-02-15T09:12:44.261Z,3.60
2018-02-15T09:15:12.382Z,4.20
2018-02-15T09:17:41.237Z,4.30
2018-02-15T09:20:09.277Z,8.23
2018-02-15T09:22:37.693Z,4.18
2018-02-15T09:25:05.762Z,4.50
2018-02-15T09:27:33.946Z,4.70
2018-02-15T09:30:02.318Z,3.87
2018-02-15T09:32:30.408Z,4.20
2018-02-15T09:34:58.478Z,3.00
2018-02-15T09:37:26.556Z,3.47
2018-02-15T09:39:55.385Z,4.30
2018-02-15T09:42:24.210Z,3.60
2018-02-15T09:44:52.265Z,3.13
2018-02-15T09:47:21.284Z,3.55
2018-02-15T09:49:49.554Z,4.28
2018-02-15T09:52:17.844Z,3.58
2018-02-15T09:54:45.953Z,3.30
2018-02-15T09:57:14.031Z,4.07
2018-02-15T09:59:42.122Z,3.63
2018-02-15T10:02:10.334Z,4.03
2018-02-15T10:04:39.181Z,3.78
2018-02-15T10:07:07.264Z,4.12
2018-02-15T10:09:35.314Z,3.40
2018-02-15T10:12:04.105Z,4.07
2018-02-15T10:14:32.182Z,3.90
2018-02-15T10:17:00.278Z,3.65
2018-02-15T10:19:28.425Z,3.50
2018-02-15T10:21:56.696Z,2.87
2018-02-15T10:24:24.823Z,2.90
2018-02-15T10:26:52.973Z,3.30
2018-02-15T10:29:21.030Z,4.10
2018-02-15T10:31:49.081Z,3.40
2018-02-15T10:34:18.135Z,3.60
2018-02-15T10:36:46.802Z,8.10
2018-02-15T10:39:14.926Z,4.00
2018-02-15T10:41:43.190Z,4.00
2018-02-15T10:44:12.304Z,4.78
2018-02-15T10:46:40.569Z,4.50
2018-02-15T10:49:08.764Z,4.13
2018-02-15T10:51:36.678Z,5.13
2018-02-15T10:54:04.842Z,3.97
2018-02-15T10:56:34.857Z,4.27
2018-02-15T10:59:04.789Z,3.35
2018-02-15T11:01:40.577Z,3.97
2018-02-15T11:04:14.478Z,3.60
2018-02-15T11:06:42.671Z,3.63
2018-02-15T11:09:11.109Z,3.57
2018-02-15T11:11:40.274Z,4.35
2018-02-15T11:14:08.520Z,3.70
2018-02-15T11:16:36.621Z,4.20
2018-02-15T11:19:05.956Z,3.28
2018-02-15T11:21:35.121Z,4.15
2018-02-15T11:24:03.189Z,3.72
2018-02-15T11:26:31.310Z,4.40
2018-02-15T11:28:59.389Z,4.28
2018-02-15T11:31:27.553Z,4.37
2018-02-15T11:33:55.621Z,22.93
2018-02-15T11:36:23.702Z,6.33
2018-02-15T11:38:52.281Z,7.20
2018-02-15T11:41:20.383Z,5.35
2018-02-15T11:43:48.538Z,4.45
2018-02-15T11:46:16.657Z,3.93
2018-02-15T11:48:45.480Z,4.37
2018-02-15T11:51:13.538Z,6.40
2018-02-15T11:53:42.384Z,4.32
2018-02-15T11:56:10.446Z,3.95
2018-02-15T11:58:38.669Z,11.57
2018-02-15T12:01:06.716Z,5.57
2018-02-15T12:03:36.614Z,5.00
2018-02-15T12:06:05.931Z,4.07
2018-02-15T12:08:34.001Z,4.73
2018-02-15T12:11:02.054Z,5.65
2018-02-15T12:13:30.109Z,4.60
2018-02-15T12:15:59.057Z,4.03
2018-02-15T12:18:27.121Z,5.07
2018-02-15T12:20:55.229Z,4.43
2018-02-15T12:23:23.393Z,4.93
2018-02-15T12:25:52.314Z,4.45
2018-02-15T12:28:21.138Z,4.70
2018-02-15T12:30:49.220Z,4.07
2018-02-15T12:33:17.293Z,5.25
2018-02-15T12:35:45.410Z,5.77
2018-02-15T12:38:13.465Z,4.07
2018-02-15T12:40:41.554Z,5.30
2018-02-15T12:43:09.606Z,4.33
2018-02-15T12:45:37.709Z,4.63
2018-02-15T12:48:06.395Z,5.10
2018-02-15T12:50:34.532Z,4.30
2018-02-15T12:53:02.654Z,3.80
2018-02-15T12:55:31.413Z,3.50
2018-02-15T12:57:59.529Z,5.30
2018-02-15T13:00:27.626Z,5.07
2018-02-15T13:02:56.454Z,4.37
2018-02-15T13:05:24.520Z,5.80
2018-02-15T13:07:53.421Z,4.87
2018-02-15T13:10:22.260Z,4.32
2018-02-15T13:13:08.408Z,4.30
2018-02-15T13:15:54.569Z,5.30
2018-02-15T13:18:23.391Z,4.68
2018-02-15T13:20:52.326Z,4.25
2018-02-15T13:23:20.409Z,4.72
2018-02-15T13:25:48.449Z,4.90
2018-02-15T13:28:38.223Z,4.10
2018-02-15T13:31:06.969Z,3.64
2018-02-15T13:33:35.028Z,4.30
2018-02-15T13:36:03.086Z,3.87
2018-02-15T13:38:31.162Z,5.60
2018-02-15T13:40:59.253Z,3.97
2018-02-15T13:43:27.305Z,4.30
2018-02-15T13:45:55.362Z,3.13
2018-02-15T13:48:23.409Z,3.20
2018-02-15T13:50:52.471Z,3.60
2018-02-15T13:53:20.886Z,3.20
2018-02-15T13:55:48.934Z,2.90
2018-02-15T13:58:17.005Z,3.60
2018-02-15T14:00:45.118Z,3.00
2018-02-15T14:03:13.984Z,3.30
2018-02-15T14:05:42.054Z,3.55
2018-02-15T14:08:10.129Z,2.60
2018-02-15T14:10:38.294Z,2.60
2018-02-15T14:13:08.319Z,2.70
2018-02-15T14:15:37.520Z,2.35
2018-02-15T14:18:05.571Z,2.47
2018-02-15T14:20:33.717Z,2.17
2018-02-15T14:23:01.770Z,2.40
2018-02-15T14:25:29.830Z,2.73
2018-02-15T14:27:57.900Z,2.50
2018-02-15T14:30:26.008Z,1.93
2018-02-15T14:32:54.333Z,2.67
2018-02-15T14:35:22.394Z,4.68
2018-02-15T14:37:52.337Z,3.33
2018-02-15T14:40:20.448Z,2.45
2018-02-15T14:42:48.514Z,2.53
2018-02-15T14:45:16.567Z,2.47
2018-02-15T14:47:44.631Z,3.47
2018-02-15T14:50:12.749Z,1.75
2018-02-15T14:52:40.880Z,2.60
2018-02-15T14:55:09.054Z,2.15
2018-02-15T14:57:37.799Z,2.12
2018-02-15T15:00:05.855Z,2.83
2018-02-15T15:02:33.933Z,2.63
2018-02-15T15:05:01.987Z,2.67
2018-02-15T15:07:30.114Z,2.50
2018-02-15T15:09:58.184Z,3.00
2018-02-15T15:12:26.258Z,3.30
2018-02-15T15:14:54.325Z,2.73
2018-02-15T15:17:22.458Z,2.58
2018-02-15T15:19:52.398Z,3.87
2018-02-15T15:22:20.528Z,2.90
2018-02-15T15:24:48.569Z,3.37
2018-02-15T15:27:16.662Z,3.60
2018-02-15T15:29:44.887Z,5.40
2018-02-15T15:32:13.706Z,4.25
2018-02-15T15:34:41.757Z,4.10
2018-02-15T15:37:10.590Z,5.10
2018-02-15T15:39:38.668Z,5.03
2018-02-15T15:42:06.734Z,4.83
2018-02-15T15:44:34.810Z,5.13
2018-02-15T15:47:05.473Z,6.60
2018-02-15T15:49:33.537Z,151.83
2018-02-15T15:52:01.602Z,11.67
2018-02-15T15:54:29.855Z,7.10
2018-02-15T15:56:57.978Z,6.33
2018-02-15T15:59:26.050Z,5.40
2018-02-15T16:01:54.119Z,5.83
2018-02-15T16:04:22.207Z,6.93
2018-02-15T16:06:50.280Z,6.30
2018-02-15T16:09:18.421Z,7.18
2018-02-15T16:11:46.539Z,6.37
2018-02-15T16:14:14.601Z,7.37
2018-02-15T16:16:42.709Z,6.20
2018-02-15T16:19:10.770Z,6.80
2018-02-15T16:21:38.822Z,7.43
2018-02-15T16:24:06.910Z,7.57
2018-02-15T16:26:34.970Z,8.43
2018-02-15T16:29:03.049Z,9.13
2018-02-15T16:31:31.102Z,8.73
2018-02-15T16:33:59.156Z,9.97
2018-02-15T16:36:28.019Z,12.27
2018-02-15T16:38:56.085Z,10.80
2018-02-15T16:41:24.138Z,16.10
2018-02-15T16:43:53.026Z,11.30
2018-02-15T16:46:21.080Z,11.50
2018-02-15T16:48:49.920Z,10.57
2018-02-15T16:51:17.973Z,10.23
2018-02-15T16:53:46.033Z,10.63
2018-02-15T16:56:14.087Z,11.95
2018-02-15T16:58:42.145Z,11.13
2018-02-15T17:01:10.210Z,17.90
2018-02-15T17:03:39.515Z,12.95
2018-02-15T17:06:07.569Z,13.62
2018-02-15T17:08:35.641Z,11.97
2018-02-15T17:11:03.709Z,10.40
2018-02-15T17:13:31.762Z,12.13
2018-02-15T17:16:00.611Z,13.33
2018-02-15T17:18:28.669Z,11.20
2018-02-15T17:20:56.726Z,13.82
2018-02-15T17:23:24.838Z,12.70
2018-02-15T17:25:52.906Z,13.20
2018-02-15T17:28:21.007Z,14.00
2018-02-15T17:30:49.049Z,14.10
2018-02-15T17:33:17.113Z,12.95
2018-02-15T17:35:45.221Z,13.57
2018-02-15T17:38:13.306Z,14.50
2018-02-15T17:40:41.468Z,14.53
2018-02-15T17:43:10.644Z,14.60
2018-02-15T17:45:39.821Z,15.50
2018-02-15T17:48:10.106Z,14.40
2018-02-15T17:50:38.149Z,14.47
2018-02-15T17:53:06.259Z,14.95
2018-02-15T17:55:34.942Z,19.27
2018-02-15T17:58:03.002Z,18.33
2018-02-15T18:00:31.070Z,16.40
2018-02-15T18:02:59.125Z,14.98
2018-02-15T18:05:28.091Z,15.33
2018-02-15T18:07:56.157Z,16.80
2018-02-15T18:10:24.213Z,18.27
2018-02-15T18:12:52.316Z,16.50
2018-02-15T18:15:20.486Z,15.77
2018-02-15T18:17:48.529Z,16.60
2018-02-15T18:20:16.607Z,16.23
2018-02-15T18:22:44.714Z,18.05
2018-02-15T18:25:12.786Z,17.07
2018-02-15T18:27:40.841Z,17.40
2018-02-15T18:30:08.937Z,18.17
2018-02-15T18:32:36.993Z,16.73
2018-02-15T18:35:05.061Z,16.92
2018-02-15T18:37:33.109Z,20.60
2018-02-15T18:40:01.941Z,20.70
2018-02-15T18:42:30.034Z,20.23
2018-02-15T18:44:58.117Z,22.40
2018-02-15T18:47:26.191Z,23.00
2018-02-15T18:49:54.245Z,23.60
2018-02-15T18:52:22.337Z,22.80
2018-02-15T18:54:50.398Z,24.63
2018-02-15T18:57:18.461Z,22.00
2018-02-15T18:59:46.532Z,25.00
2018-02-15T19:02:14.650Z,23.50
2018-02-15T19:04:42.722Z,26.15
2018-02-15T19:07:10.905Z,25.92
2018-02-15T19:09:39.553Z,22.55
2018-02-15T19:12:07.662Z,22.47
2018-02-15T19:14:36.093Z,22.13
2018-02-15T19:17:04.941Z,23.20
2018-02-15T19:19:33.117Z,22.15
2018-02-15T19:22:01.173Z,20.73
2018-02-15T19:24:29.282Z,22.77
2018-02-15T19:26:57.461Z,21.62
2018-02-15T19:29:25.530Z,21.53
2018-02-15T19:31:53.713Z,20.30
2018-02-15T19:34:21.774Z,23.02
2018-02-15T19:36:49.865Z,20.83
2018-02-15T19:39:18.170Z,23.57
2018-02-15T19:41:47.026Z,23.28
2018-02-15T19:44:15.098Z,24.85
2018-02-15T19:46:43.166Z,23.87
2018-02-15T19:49:11.765Z,23.48
2018-02-15T19:51:40.186Z,24.40
2018-02-15T19:54:08.625Z,23.80
2018-02-15T19:56:37.100Z,23.57
2018-02-15T19:59:05.327Z,24.55
2018-02-15T20:01:33.412Z,26.43
2018-02-15T20:04:01.554Z,22.47
2018-02-15T20:06:29.767Z,22.77
2018-02-15T20:08:57.897Z,24.87
2018-02-15T20:11:27.194Z,28.63
2018-02-15T20:13:56.234Z,26.93
2018-02-15T20:16:24.291Z,28.55
2018-02-15T20:18:53.417Z,30.57
2018-02-15T20:21:22.364Z,30.55
2018-02-15T20:23:50.505Z,27.13
2018-02-15T20:26:25.078Z,27.10
2018-02-15T20:28:53.161Z,28.77
2018-02-15T20:31:21.224Z,29.92
2018-02-15T20:33:49.326Z,26.60
2018-02-15T20:36:17.393Z,29.55
2018-02-15T20:38:52.153Z,28.07
2018-02-15T20:41:20.595Z,27.75
2018-02-15T20:43:48.738Z,28.43
2018-02-15T20:46:17.597Z,25.37
2018-02-15T20:48:45.797Z,26.50
2018-02-15T20:51:19.992Z,25.60
2018-02-15T20:53:53.644Z,26.90
2018-02-15T20:56:21.698Z,27.00
2018-02-15T20:58:50.537Z,27.20
2018-02-15T21:01:18.602Z,27.40
2018-02-15T21:03:46.661Z,25.45
2018-02-15T21:06:14.718Z,24.33
2018-02-15T21:08:43.566Z,23.90
2018-02-15T21:11:13.291Z,26.50
2018-02-15T21:13:43.313Z,25.97
2018-02-15T21:16:13.254Z,23.97
2018-02-15T21:18:43.209Z,25.37
2018-02-15T21:21:12.458Z,23.80
2018-02-15T21:23:40.540Z,19.70
2018-02-15T21:26:08.602Z,18.65
2018-02-15T21:28:36.712Z,19.80
2018-02-15T21:31:05.558Z,19.12
2018-02-15T21:33:33.616Z,19.63
2018-02-15T21:36:01.732Z,19.37
2018-02-15T21:38:29.797Z,21.75
2018-02-15T21:40:57.879Z,20.60
2018-02-15T21:43:26.066Z,21.73
2018-02-15T21:45:54.133Z,21.07
2018-02-15T21:48:22.221Z,20.10
2018-02-15T21:50:50.294Z,20.60
2018-02-15T21:53:18.365Z,21.58
2018-02-15T21:55:46.437Z,21.30
2018-02-15T21:58:14.541Z,21.10
2018-02-15T22:00:43.890Z,21.00
2018-02-15T22:03:13.840Z,21.80
2018-02-15T22:05:43.026Z,19.50
2018-02-15T22:08:11.089Z,22.60
2018-02-15T22:10:40.013Z,21.43
2018-02-15T22:13:08.089Z,21.20
2018-02-15T22:15:36.158Z,21.40
2018-02-15T22:18:04.217Z,21.43
2018-02-15T22:20:32.429Z,21.73
2018-02-15T22:23:00.481Z,21.10
2018-02-15T22:25:28.582Z,25.83
2018-02-15T22:27:56.653Z,21.70
2018-02-15T22:32:59.261Z,21.58
2018-02-15T22:35:27.338Z,23.62
2018-02-15T22:37:55.401Z,21.00
2018-02-15T22:40:23.486Z,24.20
2018-02-15T22:42:53.089Z,21.37
2018-02-15T22:45:21.168Z,22.90
2018-02-15T22:47:49.214Z,21.07
2018-02-15T22:50:17.293Z,20.00
2018-02-15T22:52:45.610Z,18.90
2018-02-15T22:55:14.794Z,23.10
2018-02-15T22:57:43.978Z,21.83
2018-02-15T23:00:12.058Z,18.47
2018-02-15T23:02:40.114Z,20.40
2018-02-15T23:05:09.053Z,20.75
2018-02-15T23:07:37.242Z,18.17
2018-02-15T23:10:05.293Z,15.95
2018-02-15T23:12:33.353Z,18.50
2018-02-15T23:15:01.414Z,18.20
2018-02-15T23:17:30.252Z,21.30
2018-02-15T23:19:58.314Z,17.67
2018-02-15T23:22:26.390Z,14.63
2018-02-15T23:24:54.456Z,17.07
2018-02-15T23:27:22.561Z,18.50
2018-02-15T23:29:50.646Z,17.20
2018-02-15T23:32:19.530Z,19.03
2018-02-15T23:34:47.618Z,18.63
2018-02-15T23:37:15.694Z,18.90
2018-02-15T23:39:44.589Z,19.40
2018-02-15T23:42:12.665Z,19.90
2018-02-15T23:44:40.741Z,16.53
2018-02-15T23:47:08.813Z,16.75
2018-02-15T23:49:36.994Z,16.57
2018-02-15T23:52:05.845Z,17.77
2018-02-15T23:54:33.928Z,17.23
2018-02-15T23:57:01.978Z,17.62
2018-02-15T23:59:30.825Z,18.83
